createdAt,value
2019-02-28T00:01:55.946Z,11.97
2019-02-28T00:04:25.601Z,7.20
2019-02-28T00:06:55.215Z,3.47
2019-02-28T00:09:25.716Z,3.80
2019-02-28T00:11:56.066Z,3.97
2019-02-28T00:14:27.766Z,4.23
2019-02-28T00:16:57.033Z,3.47
2019-02-28T00:19:26.633Z,3.97
2019-02-28T00:21:56.222Z,4.57
2019-02-28T00:24:27.248Z,3.80
2019-02-28T00:26:57.139Z,4.07
2019-02-28T00:29:26.721Z,3.77
2019-02-28T00:31:56.390Z,4.23
2019-02-28T00:34:25.979Z,4.50
2019-02-28T00:36:55.593Z,4.60
2019-02-28T00:39:25.199Z,4.17
2019-02-28T00:41:54.792Z,3.43
2019-02-28T00:44:24.405Z,4.10
2019-02-28T00:46:54.021Z,3.27
2019-02-28T00:49:24.450Z,3.83
2019-02-28T00:51:54.671Z,4.00
2019-02-28T00:54:24.287Z,3.27
2019-02-28T00:56:53.911Z,3.40
2019-02-28T00:59:23.530Z,3.60
2019-02-28T01:01:53.120Z,3.63
2019-02-28T01:04:22.730Z,3.50
2019-02-28T01:06:52.320Z,3.27
2019-02-28T01:09:21.932Z,3.20
2019-02-28T01:11:51.514Z,3.03
2019-02-28T01:14:21.124Z,3.63
2019-02-28T01:16:53.072Z,3.40
2019-02-28T01:19:22.049Z,3.60
2019-02-28T01:21:51.638Z,3.20
2019-02-28T01:24:21.255Z,3.70
2019-02-28T01:26:50.868Z,3.07
2019-02-28T01:29:20.455Z,3.60
2019-02-28T01:31:50.958Z,3.07
2019-02-28T01:34:20.565Z,3.37
2019-02-28T01:36:50.211Z,3.40
2019-02-28T01:39:19.831Z,3.53
2019-02-28T01:41:49.420Z,3.13
2019-02-28T01:44:19.031Z,3.03
2019-02-28T01:46:49.277Z,3.40
2019-02-28T01:49:19.129Z,3.50
2019-02-28T01:51:48.718Z,3.27
2019-02-28T01:54:18.321Z,3.50
2019-02-28T01:56:47.910Z,2.90
2019-02-28T01:59:17.519Z,3.17
2019-02-28T02:01:47.126Z,2.90
2019-02-28T02:04:16.742Z,3.20
2019-02-28T02:06:46.527Z,3.47
2019-02-28T02:09:16.204Z,2.30
2019-02-28T02:11:45.796Z,3.27
2019-02-28T02:14:15.420Z,2.70
2019-02-28T02:16:45.080Z,3.37
2019-02-28T02:19:18.575Z,3.30
2019-02-28T02:24:29.820Z,3.33
2019-02-28T02:26:59.457Z,2.97
2019-02-28T02:29:29.074Z,2.77
2019-02-28T02:32:01.193Z,3.10
2019-02-28T02:34:30.062Z,2.80
2019-02-28T02:36:59.703Z,3.20
2019-02-28T02:39:29.283Z,2.63
2019-02-28T02:41:58.904Z,3.40
2019-02-28T02:44:31.856Z,2.87
2019-02-28T02:46:59.834Z,3.43
2019-02-28T02:49:29.430Z,3.83
2019-02-28T02:51:59.041Z,3.40
2019-02-28T02:54:28.627Z,3.27
2019-02-28T02:56:58.249Z,2.50
2019-02-28T02:59:27.853Z,2.50
2019-02-28T03:01:57.443Z,2.43
2019-02-28T03:04:27.053Z,3.00
2019-02-28T03:06:56.683Z,3.33
2019-02-28T03:09:26.263Z,2.47
2019-02-28T03:11:57.711Z,3.00
2019-02-28T03:14:27.191Z,2.73
2019-02-28T03:16:56.869Z,3.10
2019-02-28T03:19:33.152Z,2.97
2019-02-28T03:21:57.791Z,2.77
2019-02-28T03:24:27.388Z,2.47
2019-02-28T03:26:56.998Z,2.77
2019-02-28T03:29:26.610Z,2.90
2019-02-28T03:31:59.106Z,2.47
2019-02-28T03:34:27.556Z,2.33
2019-02-28T03:36:57.674Z,2.40
2019-02-28T03:39:27.508Z,2.70
2019-02-28T03:41:57.262Z,2.93
2019-02-28T03:44:26.881Z,3.27
2019-02-28T03:46:56.471Z,2.37
2019-02-28T03:49:26.078Z,2.40
2019-02-28T03:51:55.681Z,2.27
2019-02-28T03:54:28.964Z,2.63
2019-02-28T03:56:56.882Z,2.60
2019-02-28T03:59:26.644Z,2.37
2019-02-28T04:01:56.430Z,2.27
2019-02-28T04:04:26.104Z,2.50
2019-02-28T04:06:55.788Z,2.60
2019-02-28T04:09:25.420Z,2.43
2019-02-28T04:11:55.054Z,2.80
2019-02-28T04:14:28.267Z,2.60
2019-02-28T04:16:55.969Z,2.13
2019-02-28T04:19:25.649Z,2.77
2019-02-28T04:21:55.244Z,2.73
2019-02-28T04:24:24.861Z,2.50
2019-02-28T04:26:54.453Z,2.10
2019-02-28T04:29:30.114Z,3.10
2019-02-28T04:31:57.862Z,2.30
2019-02-28T04:34:26.743Z,2.50
2019-02-28T04:36:56.319Z,2.17
2019-02-28T04:39:25.934Z,2.23
2019-02-28T04:41:55.523Z,2.00
2019-02-28T04:44:25.132Z,1.70
2019-02-28T04:46:54.756Z,2.40
2019-02-28T04:49:24.438Z,2.47
2019-02-28T04:51:54.044Z,2.07
2019-02-28T04:54:24.549Z,2.03
2019-02-28T04:56:54.962Z,1.77
2019-02-28T04:59:24.575Z,1.83
2019-02-28T05:01:54.160Z,2.33
2019-02-28T05:04:23.773Z,1.93
2019-02-28T05:06:55.163Z,2.13
2019-02-28T05:09:24.782Z,2.13
2019-02-28T05:11:54.400Z,2.43
2019-02-28T05:14:24.443Z,2.00
2019-02-28T05:16:54.163Z,1.90
2019-02-28T05:19:23.777Z,1.90
2019-02-28T05:21:54.270Z,2.10
2019-02-28T05:24:23.997Z,2.40
2019-02-28T05:26:53.592Z,2.13
2019-02-28T05:29:23.180Z,2.07
2019-02-28T05:31:52.804Z,1.90
2019-02-28T05:34:22.396Z,2.53
2019-02-28T05:36:52.023Z,2.13
2019-02-28T05:39:21.627Z,2.50
2019-02-28T05:41:51.249Z,2.83
2019-02-28T05:44:21.427Z,2.73
2019-02-28T05:46:51.030Z,2.57
2019-02-28T05:49:20.649Z,3.40
2019-02-28T05:51:50.231Z,5.87
2019-02-28T05:54:19.866Z,5.07
2019-02-28T05:56:49.446Z,3.80
2019-02-28T05:59:19.030Z,3.73
2019-02-28T06:01:48.647Z,3.93
2019-02-28T06:04:18.230Z,4.10
2019-02-28T06:06:47.845Z,2.00
2019-02-28T06:09:17.436Z,3.17
2019-02-28T06:11:47.054Z,2.60
2019-02-28T06:14:16.740Z,2.20
2019-02-28T06:16:46.856Z,10.73
2019-02-28T06:19:17.300Z,3.37
2019-02-28T06:21:46.887Z,3.20
2019-02-28T06:24:16.490Z,3.00
2019-02-28T06:26:46.180Z,2.73
2019-02-28T06:29:16.413Z,2.80
2019-02-28T06:31:48.619Z,2.73
2019-02-28T06:34:18.964Z,2.90
2019-02-28T06:36:48.592Z,3.10
2019-02-28T06:39:18.190Z,4.13
2019-02-28T06:41:47.805Z,5.57
2019-02-28T06:44:17.394Z,5.07
2019-02-28T06:46:46.997Z,2.93
2019-02-28T06:49:16.647Z,3.20
2019-02-28T06:51:48.349Z,2.93
2019-02-28T06:54:17.529Z,3.13
2019-02-28T06:56:47.114Z,3.10
2019-02-28T06:59:16.726Z,3.20
2019-02-28T07:01:46.319Z,3.20
2019-02-28T07:04:15.931Z,3.80
2019-02-28T07:06:45.554Z,3.80
2019-02-28T07:09:15.140Z,4.40
2019-02-28T07:11:44.837Z,3.83
2019-02-28T07:14:14.424Z,4.90
2019-02-28T07:16:44.016Z,5.03
2019-02-28T07:19:13.631Z,4.70
2019-02-28T07:21:44.240Z,4.33
2019-02-28T07:24:14.077Z,4.97
2019-02-28T07:26:43.669Z,5.90
2019-02-28T07:29:13.281Z,5.10
2019-02-28T07:31:42.882Z,7.43
2019-02-28T07:34:12.491Z,7.50
2019-02-28T07:36:44.651Z,7.40
2019-02-28T07:39:13.402Z,8.00
2019-02-28T07:41:43.016Z,9.07
2019-02-28T07:44:12.610Z,8.07
2019-02-28T07:46:43.315Z,7.90
2019-02-28T07:49:13.015Z,8.50
2019-02-28T07:51:42.639Z,6.50
2019-02-28T07:54:12.621Z,7.30
2019-02-28T07:56:44.308Z,6.07
2019-02-28T07:59:13.937Z,6.23
2019-02-28T08:01:43.576Z,5.73
2019-02-28T08:04:18.022Z,5.20
2019-02-28T08:06:44.539Z,6.07
2019-02-28T08:09:21.395Z,5.63
2019-02-28T08:11:51.673Z,4.97
2019-02-28T08:14:22.340Z,10.00
2019-02-28T08:16:52.004Z,10.27
2019-02-28T08:19:22.857Z,8.80
2019-02-28T08:21:53.029Z,7.53
2019-02-28T08:24:22.613Z,6.67
2019-02-28T08:26:53.473Z,6.37
2019-02-28T08:29:23.688Z,5.77
2019-02-28T08:31:53.299Z,5.77
2019-02-28T08:34:23.869Z,5.83
2019-02-28T08:36:54.474Z,6.40
2019-02-28T08:39:24.138Z,5.47
2019-02-28T08:41:53.754Z,5.63
2019-02-28T08:44:24.093Z,5.10
2019-02-28T08:46:53.819Z,5.53
2019-02-28T08:49:23.419Z,5.47
2019-02-28T08:51:53.063Z,6.17
2019-02-28T08:54:26.076Z,6.40
2019-02-28T08:56:53.971Z,5.80
2019-02-28T08:59:23.670Z,5.93
2019-02-28T09:01:53.341Z,5.50
2019-02-28T09:04:22.964Z,7.03
2019-02-28T09:06:52.603Z,6.43
2019-02-28T09:09:22.196Z,5.60
2019-02-28T09:11:53.156Z,6.20
2019-02-28T09:14:23.211Z,5.33
2019-02-28T09:16:52.829Z,5.20
2019-02-28T09:19:22.451Z,6.37
2019-02-28T09:21:52.898Z,6.60
2019-02-28T09:24:23.319Z,6.63
2019-02-28T09:26:53.012Z,6.77
2019-02-28T09:29:22.679Z,6.40
2019-02-28T09:31:52.365Z,5.37
2019-02-28T09:34:21.964Z,5.30
2019-02-28T09:36:55.488Z,4.47
2019-02-28T09:39:22.982Z,3.97
2019-02-28T09:41:52.615Z,3.03
2019-02-28T09:44:22.228Z,3.03
2019-02-28T09:46:52.295Z,3.27
2019-02-28T09:49:21.973Z,2.93
2019-02-28T09:51:51.735Z,2.43
2019-02-28T09:54:24.367Z,2.80
2019-02-28T09:56:52.764Z,2.70
2019-02-28T09:59:22.354Z,2.60
2019-02-28T10:02:00.937Z,3.00
2019-02-28T10:04:23.338Z,2.60
2019-02-28T10:06:53.013Z,2.83
2019-02-28T10:09:22.643Z,2.50
2019-02-28T10:11:52.273Z,2.80
2019-02-28T10:14:21.877Z,2.87
2019-02-28T10:16:52.672Z,1.50
2019-02-28T10:19:23.813Z,1.33
2019-02-28T10:21:53.655Z,1.00
2019-02-28T10:24:24.684Z,1.10
2019-02-28T10:26:54.396Z,0.80
2019-02-28T10:29:23.982Z,0.97
2019-02-28T10:31:53.682Z,0.68
2019-02-28T10:34:23.504Z,0.82
2019-02-28T10:36:54.706Z,0.72
2019-02-28T10:39:24.300Z,0.72
2019-02-28T10:41:54.464Z,1.00
2019-02-28T10:44:30.456Z,0.90
2019-02-28T10:46:55.435Z,0.78
2019-02-28T10:49:25.168Z,0.72
2019-02-28T10:51:54.860Z,0.72
2019-02-28T10:54:24.485Z,0.65
2019-02-28T10:56:54.192Z,0.55
2019-02-28T10:59:24.383Z,0.80
2019-02-28T11:01:54.668Z,1.07
2019-02-28T11:04:24.572Z,0.62
2019-02-28T11:06:54.261Z,0.80
2019-02-28T11:09:25.524Z,0.55
2019-02-28T11:11:55.265Z,0.80
2019-02-28T11:14:24.954Z,0.80
2019-02-28T11:16:59.083Z,1.00
2019-02-28T11:19:26.101Z,0.60
2019-02-28T11:21:55.728Z,0.95
2019-02-28T11:24:27.024Z,0.68
2019-02-28T11:26:56.839Z,0.60
2019-02-28T11:29:26.662Z,0.80
2019-02-28T11:31:56.470Z,0.82
2019-02-28T11:34:26.234Z,0.60
2019-02-28T11:36:55.899Z,0.68
2019-02-28T11:39:27.548Z,0.65
2019-02-28T11:41:57.048Z,0.82
2019-02-28T11:44:26.749Z,1.00
2019-02-28T11:46:56.420Z,1.15
2019-02-28T11:49:28.616Z,0.80
2019-02-28T11:51:57.454Z,1.17
2019-02-28T11:54:27.075Z,1.20
2019-02-28T11:56:56.667Z,0.72
2019-02-28T11:59:26.367Z,0.75
2019-02-28T12:01:55.956Z,0.70
2019-02-28T12:04:25.573Z,0.78
2019-02-28T12:06:57.470Z,0.80
2019-02-28T12:09:26.651Z,1.02
2019-02-28T12:11:56.274Z,0.80
2019-02-28T12:14:26.351Z,0.70
2019-02-28T12:16:57.212Z,0.72
2019-02-28T12:19:28.384Z,0.80
2019-02-28T12:22:00.123Z,0.70
2019-02-28T12:24:32.407Z,0.70
2019-02-28T12:27:00.828Z,0.85
2019-02-28T12:29:30.448Z,0.65
2019-02-28T12:32:00.042Z,1.22
2019-02-28T12:34:30.028Z,0.80
2019-02-28T12:36:59.983Z,0.90
2019-02-28T12:39:29.637Z,0.82
2019-02-28T12:42:00.299Z,0.68
2019-02-28T12:44:29.930Z,0.88
2019-02-28T12:46:59.556Z,0.72
2019-02-28T12:49:29.228Z,0.60
2019-02-28T12:51:58.840Z,0.70
2019-02-28T12:54:30.287Z,1.00
2019-02-28T12:56:59.854Z,1.02
2019-02-28T12:59:29.480Z,0.80
2019-02-28T13:01:59.146Z,0.88
2019-02-28T13:04:28.776Z,1.05
2019-02-28T13:06:58.845Z,0.80
2019-02-28T13:09:30.263Z,0.68
2019-02-28T13:11:59.971Z,0.90
2019-02-28T13:14:29.664Z,0.82
2019-02-28T13:16:59.481Z,0.90
2019-02-28T13:19:29.173Z,0.62
2019-02-28T13:21:58.963Z,0.75
2019-02-28T13:24:28.657Z,0.75
2019-02-28T13:26:58.280Z,0.70
2019-02-28T13:29:28.860Z,0.68
2019-02-28T13:32:01.452Z,0.80
2019-02-28T13:34:30.749Z,0.80
2019-02-28T13:37:02.856Z,0.75
2019-02-28T13:39:32.732Z,0.80
2019-02-28T13:42:03.109Z,0.82
2019-02-28T13:44:36.375Z,0.80
2019-02-28T13:47:09.406Z,0.78
2019-02-28T13:49:38.440Z,0.60
2019-02-28T13:52:08.113Z,0.80
2019-02-28T13:54:38.146Z,0.65
2019-02-28T13:57:10.097Z,0.78
2019-02-28T13:59:39.866Z,0.68
2019-02-28T14:02:09.528Z,0.70
2019-02-28T14:04:39.153Z,0.80
2019-02-28T14:07:08.852Z,0.68
2019-02-28T14:09:38.452Z,0.70
2019-02-28T14:12:08.493Z,0.88
2019-02-28T14:14:38.974Z,0.98
2019-02-28T14:17:09.497Z,0.70
2019-02-28T14:19:39.093Z,0.70
2019-02-28T14:22:11.584Z,0.75
2019-02-28T14:24:40.197Z,1.10
2019-02-28T14:27:09.893Z,0.90
2019-02-28T14:29:39.557Z,0.85
2019-02-28T14:32:09.247Z,0.93
2019-02-28T14:34:38.853Z,0.90
2019-02-28T14:37:08.469Z,0.70
2019-02-28T14:39:39.834Z,0.78
2019-02-28T14:42:09.748Z,0.85
2019-02-28T14:44:39.381Z,0.75
2019-02-28T14:47:08.977Z,0.90
2019-02-28T14:49:38.668Z,0.82
2019-02-28T14:52:08.311Z,1.32
2019-02-28T14:54:38.148Z,0.90
2019-02-28T14:57:07.883Z,0.98
2019-02-28T14:59:37.507Z,1.50
2019-02-28T15:02:07.242Z,1.05
2019-02-28T15:04:39.771Z,0.90
2019-02-28T15:07:08.177Z,0.78
2019-02-28T15:09:37.841Z,0.90
2019-02-28T15:12:07.698Z,1.00
2019-02-28T15:14:37.399Z,1.00
2019-02-28T15:17:07.689Z,1.00
2019-02-28T15:19:37.358Z,1.82
2019-02-28T15:22:06.955Z,2.50
2019-02-28T15:24:36.574Z,2.30
2019-02-28T15:27:06.241Z,1.92
2019-02-28T15:29:35.871Z,2.10
2019-02-28T15:32:05.554Z,3.83
2019-02-28T15:34:37.522Z,2.85
2019-02-28T15:37:06.679Z,1.60
2019-02-28T15:39:36.298Z,1.30
2019-02-28T15:42:08.224Z,1.22
2019-02-28T15:44:37.300Z,1.75
2019-02-28T15:47:07.065Z,1.67
2019-02-28T15:49:36.700Z,2.25
2019-02-28T15:52:06.420Z,1.20
2019-02-28T15:54:36.162Z,1.62
2019-02-28T15:57:06.019Z,1.65
2019-02-28T15:59:35.751Z,2.62
2019-02-28T16:02:06.286Z,3.50
2019-02-28T16:04:36.821Z,2.50
2019-02-28T16:07:06.511Z,2.12
2019-02-28T16:09:36.165Z,1.75
2019-02-28T16:12:05.860Z,2.33
2019-02-28T16:14:35.843Z,3.10
2019-02-28T16:17:05.834Z,2.65
2019-02-28T16:19:35.459Z,2.23
2019-02-28T16:22:05.194Z,2.12
2019-02-28T16:24:36.730Z,3.33
2019-02-28T16:27:06.351Z,2.47
2019-02-28T16:29:36.020Z,2.83
2019-02-28T16:32:05.711Z,3.13
2019-02-28T16:34:35.328Z,3.47
2019-02-28T16:37:04.960Z,5.70
2019-02-28T16:39:34.554Z,3.10
2019-02-28T16:42:04.243Z,6.67
2019-02-28T16:44:33.840Z,5.57
2019-02-28T16:47:03.476Z,5.40
2019-02-28T16:49:33.070Z,30.63
2019-02-28T16:52:05.936Z,31.83
2019-02-28T16:54:34.043Z,12.03
2019-02-28T16:57:03.731Z,9.50
2019-02-28T16:59:33.329Z,8.20
2019-02-28T17:02:02.981Z,6.67
2019-02-28T17:04:32.592Z,6.23
2019-02-28T17:07:02.757Z,5.70
2019-02-28T17:09:34.202Z,6.40
2019-02-28T17:12:05.507Z,5.53
2019-02-28T17:14:35.128Z,6.97
2019-02-28T17:17:08.732Z,6.50
2019-02-28T17:19:38.176Z,5.17
2019-02-28T17:22:07.842Z,7.50
2019-02-28T17:24:37.460Z,9.23
2019-02-28T17:27:11.143Z,18.10
2019-02-28T17:29:45.307Z,15.50
2019-02-28T17:32:15.274Z,10.33
2019-02-28T17:34:44.923Z,9.50
2019-02-28T17:37:14.660Z,7.47
2019-02-28T17:39:47.318Z,11.03
2019-02-28T17:42:15.947Z,11.53
2019-02-28T17:44:56.014Z,16.20
2019-02-28T17:48:13.698Z,22.93
2019-02-28T17:50:59.835Z,18.70
2019-02-28T17:54:02.567Z,13.60
2019-02-28T17:56:54.124Z,14.13
2019-02-28T17:59:41.900Z,15.73
2019-02-28T18:02:30.304Z,16.73
2019-02-28T18:05:33.823Z,14.03
2019-02-28T18:08:26.090Z,12.73
2019-02-28T18:11:39.426Z,13.80
2019-02-28T18:14:22.217Z,13.50
2019-02-28T18:17:07.937Z,17.33
2019-02-28T18:20:32.953Z,7.77
2019-02-28T18:23:35.222Z,12.33
2019-02-28T18:26:38.633Z,13.90
2019-02-28T18:29:14.236Z,14.33
2019-02-28T18:31:43.840Z,9.67
2019-02-28T18:34:13.607Z,11.20
2019-02-28T18:36:44.228Z,10.43
2019-02-28T18:39:14.221Z,13.33
2019-02-28T18:41:43.856Z,19.30
2019-02-28T18:44:13.558Z,21.87
2019-02-28T18:46:43.157Z,15.83
2019-02-28T18:49:12.787Z,16.10
2019-02-28T18:51:42.422Z,16.37
2019-02-28T18:54:12.023Z,17.67
2019-02-28T18:56:41.691Z,12.70
2019-02-28T18:59:11.378Z,13.47
2019-02-28T19:01:41.078Z,15.43
2019-02-28T19:04:10.708Z,14.93
2019-02-28T19:06:40.341Z,17.00
2019-02-28T19:09:21.663Z,18.53
2019-02-28T19:11:51.438Z,10.90
2019-02-28T19:14:21.088Z,12.50
2019-02-28T19:16:50.775Z,9.87
2019-02-28T19:19:20.392Z,18.47
2019-02-28T19:21:50.017Z,15.03
2019-02-28T19:24:19.647Z,14.83
2019-02-28T19:26:49.335Z,9.20
2019-02-28T19:29:18.969Z,10.90
2019-02-28T19:31:48.593Z,8.23
2019-02-28T19:34:18.220Z,9.17
2019-02-28T19:36:47.819Z,7.80
2019-02-28T19:39:17.441Z,13.13
2019-02-28T19:41:47.045Z,14.30
2019-02-28T19:44:16.669Z,15.33
2019-02-28T19:46:46.266Z,13.50
2019-02-28T19:49:15.901Z,16.53
2019-02-28T19:51:45.501Z,14.73
2019-02-28T19:54:15.105Z,12.47
2019-02-28T19:56:44.729Z,13.00
2019-02-28T19:59:14.333Z,12.60
2019-02-28T20:01:45.346Z,15.40
2019-02-28T20:04:15.592Z,10.70
2019-02-28T20:06:45.324Z,10.53
2019-02-28T20:09:15.089Z,9.60
2019-02-28T20:11:44.787Z,12.37
2019-02-28T20:14:14.482Z,11.53
2019-02-28T20:16:44.216Z,9.93
2019-02-28T20:19:13.844Z,9.67
2019-02-28T20:21:43.658Z,9.97
2019-02-28T20:24:13.521Z,10.00
2019-02-28T20:26:43.191Z,10.07
2019-02-28T20:29:12.874Z,9.47
2019-02-28T20:31:42.639Z,9.47
2019-02-28T20:34:12.365Z,9.60
2019-02-28T20:36:41.995Z,7.87
2019-02-28T20:39:13.027Z,7.60
2019-02-28T20:41:42.653Z,7.23
2019-02-28T20:44:12.323Z,8.63
2019-02-28T20:46:41.956Z,6.27
2019-02-28T20:49:11.553Z,7.83
2019-02-28T20:51:41.152Z,6.80
2019-02-28T20:54:10.787Z,6.10
2019-02-28T20:56:40.404Z,6.93
2019-02-28T20:59:10.031Z,6.20
2019-02-28T21:01:39.624Z,6.47
2019-02-28T21:04:09.256Z,5.93
2019-02-28T21:06:39.003Z,6.60
2019-02-28T21:09:08.673Z,5.93
2019-02-28T21:11:38.428Z,5.73
2019-02-28T21:14:08.191Z,5.53
2019-02-28T21:16:37.820Z,5.60
2019-02-28T21:19:07.449Z,5.97
2019-02-28T21:21:37.065Z,6.50
2019-02-28T21:24:06.826Z,5.67
2019-02-28T21:26:36.451Z,5.80
2019-02-28T21:29:06.107Z,5.57
2019-02-28T21:31:35.799Z,5.43
2019-02-28T21:34:05.529Z,5.33
2019-02-28T21:36:35.151Z,4.90
2019-02-28T21:39:06.997Z,5.13
2019-02-28T21:41:36.619Z,5.50
2019-02-28T21:44:06.356Z,9.30
2019-02-28T21:46:35.980Z,6.13
2019-02-28T21:49:05.848Z,10.57
2019-02-28T21:51:35.547Z,10.07
2019-02-28T21:54:05.355Z,7.20
2019-02-28T21:56:35.020Z,8.17
2019-02-28T21:59:04.687Z,7.00
2019-02-28T22:01:34.478Z,5.90
2019-02-28T22:04:04.145Z,10.63
2019-02-28T22:06:33.775Z,15.07
2019-02-28T22:09:04.351Z,15.40
2019-02-28T22:11:33.970Z,11.70
2019-02-28T22:14:03.665Z,8.73
2019-02-28T22:16:33.300Z,11.63
2019-02-28T22:19:02.934Z,10.97
2019-02-28T22:21:32.534Z,11.37
2019-02-28T22:24:02.154Z,9.03
2019-02-28T22:26:31.758Z,8.23
2019-02-28T22:29:01.373Z,11.03
2019-02-28T22:31:38.092Z,9.20
2019-02-28T22:34:09.343Z,7.00
2019-02-28T22:36:40.636Z,11.90
2019-02-28T22:39:11.561Z,8.03
2019-02-28T22:41:41.222Z,6.00
2019-02-28T22:44:10.904Z,9.73
2019-02-28T22:46:40.492Z,9.67
2019-02-28T22:49:10.117Z,11.30
2019-02-28T22:51:39.732Z,11.37
2019-02-28T22:54:09.322Z,13.90
2019-02-28T22:56:38.945Z,13.53
2019-02-28T22:59:08.542Z,10.00
2019-02-28T23:01:38.577Z,8.70
2019-02-28T23:04:08.375Z,9.07
2019-02-28T23:06:38.044Z,10.00
2019-02-28T23:09:08.212Z,11.43
2019-02-28T23:11:37.805Z,10.73
2019-02-28T23:14:07.456Z,8.53
2019-02-28T23:16:37.047Z,7.30
2019-02-28T23:19:07.110Z,7.70
2019-02-28T23:21:36.719Z,9.13
2019-02-28T23:24:06.454Z,8.67
2019-02-28T23:27:03.243Z,10.50
2019-02-28T23:29:32.840Z,11.10
2019-02-28T23:32:15.580Z,9.47
2019-02-28T23:34:45.309Z,7.83
2019-02-28T23:37:14.904Z,12.87
2019-02-28T23:39:44.528Z,11.67
2019-02-28T23:42:14.192Z,12.67
2019-02-28T23:44:43.799Z,7.83
2019-02-28T23:47:13.416Z,10.17
2019-02-28T23:49:43.043Z,9.83
2019-02-28T23:52:12.702Z,7.67
2019-02-28T23:54:42.330Z,8.43
2019-02-28T23:57:11.925Z,7.53
2019-02-28T23:59:41.552Z,8.43
